Time,TemperatureF,DewpointF,PressureIn,WindDirection,WindDirectionDegrees,WindSpeedMPH,WindSpeedGustMPH,Humidity,HourlyPrecipIn,Conditions,Clouds,dailyrainin,SoftwareType,DateUTC
2013-02-04 00:00:00,42.1,28.4,29.80,North,0,0.0,0.0,58,0.00,,,0.00,WUHU216HW,2013-02-04 06:00:00,
2013-02-04 00:05:00,42.1,28.4,29.80,North,0,0.0,0.0,58,0.00,,,0.00,WUHU216HW,2013-02-04 06:05:00,
2013-02-04 00:30:00,42.5,28.7,29.79,North,0,0.0,0.0,58,0.00,,,0.00,WUHU216HW,2013-02-04 06:30:00,
2013-02-04 00:35:00,42.5,28.7,29.79,North,0,0.0,0.0,58,0.00,,,0.00,WUHU216HW,2013-02-04 06:35:00,
2013-02-04 01:00:00,43.6,29.3,29.78,North,0,0.0,0.0,57,0.00,,,0.00,WUHU216HW,2013-02-04 07:00:00,
2013-02-04 01:05:00,43.6,29.3,29.78,North,0,0.0,0.0,57,0.00,,,0.00,WUHU216HW,2013-02-04 07:05:00,
2013-02-04 01:30:00,44.6,29.4,29.76,North,0,0.0,0.0,55,0.00,,,0.00,WUHU216HW,2013-02-04 07:30:00,
2013-02-04 01:35:00,44.6,29.4,29.76,North,0,0.0,0.0,55,0.00,,,0.00,WUHU216HW,2013-02-04 07:35:00,
2013-02-04 02:00:00,45.0,30.3,29.75,North,0,0.0,0.0,56,0.00,,,0.00,WUHU216HW,2013-02-04 08:00:00,
2013-02-04 02:05:00,45.0,30.3,29.75,North,0,0.0,0.0,56,0.00,,,0.00,WUHU216HW,2013-02-04 08:05:00,
2013-02-04 02:30:00,45.9,30.6,29.75,North,0,0.0,0.0,55,0.00,,,0.00,WUHU216HW,2013-02-04 08:30:00,
2013-02-04 02:35:00,45.9,30.6,29.75,North,0,0.0,0.0,55,0.00,,,0.00,WUHU216HW,2013-02-04 08:35:00,
2013-02-04 03:00:00,45.9,31.1,29.74,North,0,0.0,0.0,56,0.00,,,0.00,WUHU216HW,2013-02-04 09:00:00,
2013-02-04 03:05:00,45.9,31.1,29.74,North,0,0.0,0.0,56,0.00,,,0.00,WUHU216HW,2013-02-04 09:05:00,
2013-02-04 03:30:00,46.8,31.4,29.73,North,0,0.0,0.0,55,0.00,,,0.00,WUHU216HW,2013-02-04 09:30:00,
2013-02-04 03:35:00,46.8,31.4,29.73,North,0,0.0,0.0,55,0.00,,,0.00,WUHU216HW,2013-02-04 09:35:00,
2013-02-04 04:00:00,46.6,30.8,29.76,North,0,0.0,0.0,54,0.00,,,0.00,WUHU216HW,2013-02-04 10:00:00,
2013-02-04 04:05:00,46.6,30.8,29.76,North,0,0.0,0.0,54,0.00,,,0.00,WUHU216HW,2013-02-04 10:05:00,
2013-02-04 04:30:00,45.4,30.5,29.76,North,0,0.0,0.0,56,0.00,,,0.00,WUHU216HW,2013-02-04 10:30:00,
2013-02-04 04:35:00,45.4,30.5,29.76,North,0,0.0,0.0,56,0.00,,,0.00,WUHU216HW,2013-02-04 10:35:00,
2013-02-04 05:00:00,44.3,29.5,29.76,North,0,0.0,0.0,56,0.00,,,0.00,WUHU216HW,2013-02-04 11:00:00,
2013-02-04 05:05:00,44.3,29.5,29.76,North,0,0.0,0.0,56,0.00,,,0.00,WUHU216HW,2013-02-04 11:05:00,
2013-02-04 05:30:00,43.2,29.3,29.76,North,0,0.0,0.0,58,0.00,,,0.00,WUHU216HW,2013-02-04 11:30:00,
2013-02-04 05:35:00,43.2,29.3,29.76,North,0,0.0,0.0,58,0.00,,,0.00,WUHU216HW,2013-02-04 11:35:00,
2013-02-04 06:00:00,42.3,29.0,29.76,North,0,0.0,0.0,59,0.00,,,0.00,WUHU216HW,2013-02-04 12:00:00,
2013-02-04 06:05:00,42.3,29.0,29.76,North,0,0.0,0.0,59,0.00,,,0.00,WUHU216HW,2013-02-04 12:05:00,
2013-02-04 06:10:00,42.3,29.0,29.76,North,0,0.0,0.0,59,0.00,,,0.00,WUHU216HW,2013-02-04 12:10:00,
2013-02-04 06:30:00,41.4,28.6,29.76,North,0,0.0,0.0,60,0.00,,,0.00,WUHU216HW,2013-02-04 12:30:00,
2013-02-04 06:35:00,41.4,28.6,29.76,North,0,0.0,0.0,60,0.00,,,0.00,WUHU216HW,2013-02-04 12:35:00,
2013-02-04 07:00:00,39.6,28.0,29.78,North,0,0.0,0.0,63,0.00,,,0.00,WUHU216HW,2013-02-04 13:00:00,
2013-02-04 07:05:00,39.6,28.0,29.78,North,0,0.0,0.0,63,0.00,,,0.00,WUHU216HW,2013-02-04 13:05:00,
2013-02-04 07:30:00,38.5,26.9,29.79,North,0,0.0,0.0,63,0.00,,,0.00,WUHU216HW,2013-02-04 13:30:00,
2013-02-04 07:35:00,38.5,26.9,29.79,North,0,0.0,0.0,63,0.00,,,0.00,WUHU216HW,2013-02-04 13:35:00,
2013-02-04 08:00:00,39.8,29.3,29.80,North,0,0.0,0.0,66,0.00,,,0.00,WUHU216HW,2013-02-04 14:00:00,
2013-02-04 08:05:00,39.8,29.3,29.80,North,0,0.0,0.0,66,0.00,,,0.00,WUHU216HW,2013-02-04 14:05:00,
2013-02-04 08:30:00,40.7,30.2,29.81,North,0,0.0,0.0,66,0.00,,,0.00,WUHU216HW,2013-02-04 14:30:00,
2013-02-04 08:35:00,40.7,30.2,29.81,North,0,0.0,0.0,66,0.00,,,0.00,WUHU216HW,2013-02-04 14:35:00,
2013-02-04 09:00:00,41.0,30.5,29.82,North,0,0.0,0.0,66,0.00,,,0.00,WUHU216HW,2013-02-04 15:00:00,
2013-02-04 09:05:00,41.0,30.5,29.82,North,0,0.0,0.0,66,0.00,,,0.00,WUHU216HW,2013-02-04 15:05:00,
2013-02-04 09:30:00,42.7,31.3,29.84,North,0,0.0,0.0,64,0.00,,,0.00,WUHU216HW,2013-02-04 15:30:00,
2013-02-04 09:35:00,42.7,31.3,29.84,North,0,0.0,0.0,64,0.00,,,0.00,WUHU216HW,2013-02-04 15:35:00,
2013-02-04 10:00:00,43.9,31.8,29.84,North,0,0.0,0.0,62,0.00,,,0.00,WUHU216HW,2013-02-04 16:00:00,
2013-02-04 10:05:00,43.9,31.8,29.84,North,0,0.0,0.0,62,0.00,,,0.00,WUHU216HW,2013-02-04 16:05:00,
2013-02-04 10:30:00,44.6,31.2,29.85,North,0,0.0,0.0,59,0.00,,,0.00,WUHU216HW,2013-02-04 16:30:00,
2013-02-04 10:35:00,44.6,31.2,29.85,North,0,0.0,0.0,59,0.00,,,0.00,WUHU216HW,2013-02-04 16:35:00,
2013-02-04 11:00:00,45.0,31.6,29.86,North,0,0.0,0.0,59,0.00,,,0.00,WUHU216HW,2013-02-04 17:00:00,
2013-02-04 11:05:00,45.0,31.6,29.86,North,0,0.0,0.0,59,0.00,,,0.00,WUHU216HW,2013-02-04 17:05:00,
2013-02-04 11:30:00,45.4,31.4,29.88,North,0,0.0,0.0,58,0.00,,,0.00,WUHU216HW,2013-02-04 17:30:00,
2013-02-04 11:35:00,45.4,31.4,29.88,North,0,0.0,0.0,58,0.00,,,0.00,WUHU216HW,2013-02-04 17:35:00,
2013-02-04 12:00:00,45.7,31.8,29.88,North,0,0.0,0.0,58,0.00,,,0.00,WUHU216HW,2013-02-04 18:00:00,
2013-02-04 12:05:00,45.7,31.8,29.88,North,0,0.0,0.0,58,0.00,,,0.00,WUHU216HW,2013-02-04 18:05:00,
2013-02-04 12:30:00,46.6,32.1,29.88,North,0,0.0,0.0,57,0.00,,,0.00,WUHU216HW,2013-02-04 18:30:00,
2013-02-04 12:35:00,46.6,32.1,29.88,North,0,0.0,0.0,57,0.00,,,0.00,WUHU216HW,2013-02-04 18:35:00,
2013-02-04 13:00:00,46.8,31.9,29.88,North,0,0.0,0.0,56,0.00,,,0.00,WUHU216HW,2013-02-04 19:00:00,
2013-02-04 13:05:00,46.8,31.9,29.88,North,0,0.0,0.0,56,0.00,,,0.00,WUHU216HW,2013-02-04 19:05:00,
2013-02-04 13:30:00,48.8,31.4,29.88,North,0,0.0,0.0,51,0.00,,,0.00,WUHU216HW,2013-02-04 19:30:00,
2013-02-04 13:35:00,48.8,31.4,29.88,North,0,0.0,0.0,51,0.00,,,0.00,WUHU216HW,2013-02-04 19:35:00,
2013-02-04 14:00:00,49.7,31.3,29.88,East,90,1.8,1.8,49,0.00,,,0.00,WUHU216HW,2013-02-04 20:00:00,
2013-02-04 14:05:00,49.7,31.3,29.88,East,90,1.8,1.8,49,0.00,,,0.00,WUHU216HW,2013-02-04 20:05:00,
2013-02-04 14:30:00,48.2,30.4,29.88,North,0,0.0,0.0,50,0.00,,,0.00,WUHU216HW,2013-02-04 20:30:00,
2013-02-04 14:35:00,48.2,30.4,29.88,North,0,0.0,0.0,50,0.00,,,0.00,WUHU216HW,2013-02-04 20:35:00,
2013-02-04 15:00:00,48.6,31.2,29.88,North,0,0.0,0.0,51,0.00,,,0.00,WUHU216HW,2013-02-04 21:00:00,
2013-02-04 15:05:00,48.6,31.2,29.88,North,0,0.0,0.0,51,0.00,,,0.00,WUHU216HW,2013-02-04 21:05:00,
2013-02-04 15:30:00,47.7,30.0,29.89,North,0,0.0,0.0,50,0.00,,,0.00,WUHU216HW,2013-02-04 21:30:00,
2013-02-04 15:35:00,47.7,30.0,29.89,North,0,0.0,0.0,50,0.00,,,0.00,WUHU216HW,2013-02-04 21:35:00,
2013-02-04 16:00:00,43.6,27.6,29.90,North,0,0.0,0.0,53,0.00,,,0.00,WUHU216HW,2013-02-04 22:00:00,
2013-02-04 16:05:00,43.6,27.6,29.90,North,0,0.0,0.0,53,0.00,,,0.00,WUHU216HW,2013-02-04 22:05:00,
2013-02-04 16:30:00,39.1,26.3,29.91,North,0,0.0,0.0,60,0.00,,,0.00,WUHU216HW,2013-02-04 22:30:00,
2013-02-04 16:35:00,39.1,26.3,29.91,North,0,0.0,0.0,60,0.00,,,0.00,WUHU216HW,2013-02-04 22:35:00,
2013-02-04 17:00:00,37.1,24.5,29.90,North,0,0.0,0.0,60,0.00,,,0.00,WUHU216HW,2013-02-04 23:00:00,
2013-02-04 17:05:00,37.1,24.5,29.90,North,0,0.0,0.0,60,0.00,,,0.00,WUHU216HW,2013-02-04 23:05:00,
2013-02-04 17:30:00,34.9,23.9,29.90,North,0,0.0,0.0,64,0.00,,,0.00,WUHU216HW,2013-02-04 23:30:00,
2013-02-04 17:35:00,34.9,23.9,29.90,North,0,0.0,0.0,64,0.00,,,0.00,WUHU216HW,2013-02-04 23:35:00,
2013-02-04 18:00:00,33.5,23.2,29.90,North,0,0.0,0.0,66,0.00,,,0.00,WUHU216HW,2013-02-05 00:00:00,
2013-02-04 18:05:00,33.5,23.2,29.90,North,0,0.0,0.0,66,0.00,,,0.00,WUHU216HW,2013-02-05 00:05:00,
2013-02-04 18:10:00,33.5,23.2,29.90,North,0,0.0,0.0,66,0.00,,,0.00,WUHU216HW,2013-02-05 00:10:00,
2013-02-04 18:30:00,31.7,22.0,29.91,North,0,0.0,0.0,67,0.00,,,0.00,WUHU216HW,2013-02-05 00:30:00,
2013-02-04 18:35:00,31.7,22.0,29.91,North,0,0.0,0.0,67,0.00,,,0.00,WUHU216HW,2013-02-05 00:35:00,
2013-02-04 19:00:00,30.6,21.6,29.92,North,0,0.0,0.0,69,0.00,,,0.00,WUHU216HW,2013-02-05 01:00:00,
2013-02-04 19:05:00,30.6,21.6,29.92,North,0,0.0,0.0,69,0.00,,,0.00,WUHU216HW,2013-02-05 01:05:00,
2013-02-04 19:30:00,29.9,21.6,29.92,North,0,0.0,0.0,71,0.00,,,0.00,WUHU216HW,2013-02-05 01:30:00,
2013-02-04 19:35:00,29.9,21.6,29.92,North,0,0.0,0.0,71,0.00,,,0.00,WUHU216HW,2013-02-05 01:35:00,
2013-02-04 20:00:00,29.2,21.0,29.93,North,0,0.0,0.0,71,0.00,,,0.00,WUHU216HW,2013-02-05 02:00:00,
2013-02-04 20:05:00,29.2,21.0,29.93,North,0,0.0,0.0,71,0.00,,,0.00,WUHU216HW,2013-02-05 02:05:00,
2013-02-04 20:30:00,28.8,20.9,29.92,North,0,0.0,0.0,72,0.00,,,0.00,WUHU216HW,2013-02-05 02:30:00,
2013-02-04 20:35:00,28.8,20.9,29.92,North,0,0.0,0.0,72,0.00,,,0.00,WUHU216HW,2013-02-05 02:35:00,
2013-02-04 21:00:00,27.9,20.1,29.93,NNE,23,0.0,0.0,72,0.00,,,0.00,WUHU216HW,2013-02-05 03:00:00,
2013-02-04 21:05:00,27.9,20.1,29.93,NNE,23,0.0,0.0,72,0.00,,,0.00,WUHU216HW,2013-02-05 03:05:00,
2013-02-04 21:30:00,27.0,19.2,29.94,NNE,23,0.0,0.0,72,0.00,,,0.00,WUHU216HW,2013-02-05 03:30:00,
2013-02-04 21:35:00,27.0,19.2,29.94,NNE,23,0.0,0.0,72,0.00,,,0.00,WUHU216HW,2013-02-05 03:35:00,
2013-02-04 21:40:00,27.0,19.2,29.94,NNE,23,0.0,0.0,72,0.00,,,0.00,WUHU216HW,2013-02-05 03:40:00,
2013-02-04 22:00:00,26.3,19.1,29.93,NNE,23,0.0,0.0,74,0.00,,,0.00,WUHU216HW,2013-02-05 04:00:00,
2013-02-04 22:05:00,26.3,19.1,29.93,NNE,23,0.0,0.0,74,0.00,,,0.00,WUHU216HW,2013-02-05 04:05:00,
2013-02-04 22:30:00,26.1,19.2,29.93,NNE,23,0.0,0.0,75,0.00,,,0.00,WUHU216HW,2013-02-05 04:30:00,
2013-02-04 22:35:00,26.1,19.2,29.93,NNE,23,0.0,0.0,75,0.00,,,0.00,WUHU216HW,2013-02-05 04:35:00,
2013-02-04 23:00:00,25.9,19.0,29.93,NNE,23,0.0,0.0,75,0.00,,,0.00,WUHU216HW,2013-02-05 05:00:00,
2013-02-04 23:05:00,25.9,19.0,29.93,NNE,23,0.0,0.0,75,0.00,,,0.00,WUHU216HW,2013-02-05 05:05:00,
2013-02-04 23:29:00,24.8,18.4,29.91,NNE,23,0.0,0.0,76,0.00,,,0.00,WUHU216HW,2013-02-05 05:29:00,
2013-02-04 23:34:00,24.8,18.4,29.91,NNE,23,0.0,0.0,76,0.00,,,0.00,WUHU216HW,2013-02-05 05:34:00,
2013-02-04 23:40:00,24.8,18.4,29.91,NNE,23,0.0,0.0,76,0.00,,,0.00,WUHU216HW,2013-02-05 05:40:00,